sensor_id;sensor_type;location;lat;lon;timestamp;temperature;humidity
19781;DHT22;10050;55.492;13.506;2023-03-17T00:01:39;3.80;99.90
19781;DHT22;10050;55.492;13.506;2023-03-17T00:04:05;3.80;99.90
19781;DHT22;10050;55.492;13.506;2023-03-17T00:06:36;3.80;99.90
19781;DHT22;10050;55.492;13.506;2023-03-17T00:09:01;3.80;99.90
19781;DHT22;10050;55.492;13.506;2023-03-17T00:11:27;3.80;99.90
19781;DHT22;10050;55.492;13.506;2023-03-17T00:13:53;3.80;99.90
19781;DHT22;10050;55.492;13.506;2023-03-17T00:16:22;3.80;99.90
19781;DHT22;10050;55.492;13.506;2023-03-17T00:18:50;3.90;99.90
19781;DHT22;10050;55.492;13.506;2023-03-17T00:21:21;3.80;99.90
19781;DHT22;10050;55.492;13.506;2023-03-17T00:23:50;3.90;99.90
19781;DHT22;10050;55.492;13.506;2023-03-17T00:26:16;3.90;99.90
19781;DHT22;10050;55.492;13.506;2023-03-17T00:28:43;3.90;99.90
19781;DHT22;10050;55.492;13.506;2023-03-17T00:31:14;3.90;99.90
19781;DHT22;10050;55.492;13.506;2023-03-17T00:33:41;3.90;99.90
19781;DHT22;10050;55.492;13.506;2023-03-17T00:36:21;3.90;99.90
19781;DHT22;10050;55.492;13.506;2023-03-17T00:38:48;3.90;99.90
19781;DHT22;10050;55.492;13.506;2023-03-17T00:41:15;3.90;99.90
19781;DHT22;10050;55.492;13.506;2023-03-17T00:43:41;3.90;99.90
19781;DHT22;10050;55.492;13.506;2023-03-17T00:46:28;3.90;99.90
19781;DHT22;10050;55.492;13.506;2023-03-17T00:49:01;3.90;99.90
19781;DHT22;10050;55.492;13.506;2023-03-17T00:51:27;3.90;99.90
19781;DHT22;10050;55.492;13.506;2023-03-17T00:53:54;3.90;99.90
19781;DHT22;10050;55.492;13.506;2023-03-17T00:56:22;3.90;99.90
19781;DHT22;10050;55.492;13.506;2023-03-17T00:58:48;3.90;99.90
19781;DHT22;10050;55.492;13.506;2023-03-17T01:01:14;3.90;99.90
19781;DHT22;10050;55.492;13.506;2023-03-17T01:03:40;3.90;99.90
19781;DHT22;10050;55.492;13.506;2023-03-17T01:06:08;3.90;99.90
19781;DHT22;10050;55.492;13.506;2023-03-17T01:08:36;3.90;99.90
19781;DHT22;10050;55.492;13.506;2023-03-17T01:11:03;3.90;99.90
19781;DHT22;10050;55.492;13.506;2023-03-17T01:13:29;3.90;99.90
19781;DHT22;10050;55.492;13.506;2023-03-17T01:15:54;3.90;99.90
19781;DHT22;10050;55.492;13.506;2023-03-17T01:18:23;3.90;99.90
19781;DHT22;10050;55.492;13.506;2023-03-17T01:20:49;3.90;99.90
19781;DHT22;10050;55.492;13.506;2023-03-17T01:23:18;3.90;99.90
19781;DHT22;10050;55.492;13.506;2023-03-17T01:25:44;3.90;99.90
19781;DHT22;10050;55.492;13.506;2023-03-17T01:28:18;3.90;99.90
19781;DHT22;10050;55.492;13.506;2023-03-17T01:30:45;3.90;99.90
19781;DHT22;10050;55.492;13.506;2023-03-17T01:33:12;4.00;99.90
19781;DHT22;10050;55.492;13.506;2023-03-17T01:35:39;3.90;99.90
19781;DHT22;10050;55.492;13.506;2023-03-17T01:38:06;3.90;99.90
19781;DHT22;10050;55.492;13.506;2023-03-17T01:40:35;3.90;99.90
19781;DHT22;10050;55.492;13.506;2023-03-17T01:49:21;3.90;99.90
19781;DHT22;10050;55.492;13.506;2023-03-17T01:53:59;3.90;99.90
19781;DHT22;10050;55.492;13.506;2023-03-17T01:56:26;3.90;99.90
19781;DHT22;10050;55.492;13.506;2023-03-17T01:58:53;3.90;99.90
19781;DHT22;10050;55.492;13.506;2023-03-17T02:01:24;3.90;99.90
19781;DHT22;10050;55.492;13.506;2023-03-17T02:03:52;3.80;99.90
19781;DHT22;10050;55.492;13.506;2023-03-17T02:06:17;3.90;99.90
19781;DHT22;10050;55.492;13.506;2023-03-17T02:08:43;3.90;99.90
19781;DHT22;10050;55.492;13.506;2023-03-17T02:11:11;3.90;99.90
19781;DHT22;10050;55.492;13.506;2023-03-17T02:13:37;3.90;99.90
19781;DHT22;10050;55.492;13.506;2023-03-17T02:16:03;3.90;99.90
19781;DHT22;10050;55.492;13.506;2023-03-17T02:18:30;3.90;99.90
19781;DHT22;10050;55.492;13.506;2023-03-17T02:23:22;3.90;99.90
19781;DHT22;10050;55.492;13.506;2023-03-17T02:25:49;3.80;99.90
19781;DHT22;10050;55.492;13.506;2023-03-17T02:28:21;3.80;99.90
19781;DHT22;10050;55.492;13.506;2023-03-17T02:30:47;3.80;99.90
19781;DHT22;10050;55.492;13.506;2023-03-17T02:33:13;3.80;99.90
19781;DHT22;10050;55.492;13.506;2023-03-17T02:35:39;3.80;99.90
19781;DHT22;10050;55.492;13.506;2023-03-17T02:38:05;3.80;99.90
19781;DHT22;10050;55.492;13.506;2023-03-17T02:40:31;3.80;99.90
19781;DHT22;10050;55.492;13.506;2023-03-17T02:42:58;3.80;99.90
19781;DHT22;10050;55.492;13.506;2023-03-17T02:45:24;3.80;99.90
19781;DHT22;10050;55.492;13.506;2023-03-17T02:47:50;3.90;99.90
19781;DHT22;10050;55.492;13.506;2023-03-17T02:50:22;3.80;99.90
19781;DHT22;10050;55.492;13.506;2023-03-17T02:52:49;3.80;99.90
19781;DHT22;10050;55.492;13.506;2023-03-17T02:55:15;3.80;99.90
19781;DHT22;10050;55.492;13.506;2023-03-17T02:57:40;3.80;99.90
19781;DHT22;10050;55.492;13.506;2023-03-17T03:00:07;3.90;99.90
19781;DHT22;10050;55.492;13.506;2023-03-17T03:02:36;3.80;99.90
19781;DHT22;10050;55.492;13.506;2023-03-17T03:05:02;3.80;99.90
19781;DHT22;10050;55.492;13.506;2023-03-17T03:07:28;3.80;99.90
19781;DHT22;10050;55.492;13.506;2023-03-17T03:09:54;3.80;99.90
19781;DHT22;10050;55.492;13.506;2023-03-17T03:12:20;3.80;99.90
19781;DHT22;10050;55.492;13.506;2023-03-17T03:14:45;3.90;99.90
19781;DHT22;10050;55.492;13.506;2023-03-17T03:17:12;3.90;99.90
19781;DHT22;10050;55.492;13.506;2023-03-17T03:19:38;3.90;99.90
19781;DHT22;10050;55.492;13.506;2023-03-17T03:22:04;3.90;99.90
19781;DHT22;10050;55.492;13.506;2023-03-17T03:24:30;3.90;99.90
19781;DHT22;10050;55.492;13.506;2023-03-17T03:26:57;3.90;99.90
19781;DHT22;10050;55.492;13.506;2023-03-17T03:29:22;3.90;99.90
19781;DHT22;10050;55.492;13.506;2023-03-17T03:31:48;3.90;99.90
19781;DHT22;10050;55.492;13.506;2023-03-17T03:34:14;3.90;99.90
19781;DHT22;10050;55.492;13.506;2023-03-17T03:36:40;3.90;99.90
19781;DHT22;10050;55.492;13.506;2023-03-17T03:39:06;4.00;99.90
19781;DHT22;10050;55.492;13.506;2023-03-17T03:41:33;4.00;99.90
19781;DHT22;10050;55.492;13.506;2023-03-17T03:43:59;4.00;99.90
19781;DHT22;10050;55.492;13.506;2023-03-17T03:46:25;4.00;99.90
19781;DHT22;10050;55.492;13.506;2023-03-17T03:48:51;4.00;99.90
19781;DHT22;10050;55.492;13.506;2023-03-17T03:51:17;4.00;99.90
19781;DHT22;10050;55.492;13.506;2023-03-17T03:53:42;4.00;99.90
19781;DHT22;10050;55.492;13.506;2023-03-17T03:56:08;4.10;99.90
19781;DHT22;10050;55.492;13.506;2023-03-17T03:58:34;4.10;99.90
19781;DHT22;10050;55.492;13.506;2023-03-17T04:01:06;4.10;99.90
19781;DHT22;10050;55.492;13.506;2023-03-17T04:03:32;4.10;99.90
19781;DHT22;10050;55.492;13.506;2023-03-17T04:05:58;4.10;99.90
19781;DHT22;10050;55.492;13.506;2023-03-17T04:08:24;4.10;99.90
19781;DHT22;10050;55.492;13.506;2023-03-17T04:10:50;4.10;99.90
19781;DHT22;10050;55.492;13.506;2023-03-17T04:13:15;4.10;99.90
19781;DHT22;10050;55.492;13.506;2023-03-17T04:15:41;4.10;99.90
19781;DHT22;10050;55.492;13.506;2023-03-17T04:18:07;4.10;99.90
19781;DHT22;10050;55.492;13.506;2023-03-17T04:20:32;4.10;99.90
19781;DHT22;10050;55.492;13.506;2023-03-17T04:22:58;4.10;99.90
19781;DHT22;10050;55.492;13.506;2023-03-17T04:25:24;4.10;99.90
19781;DHT22;10050;55.492;13.506;2023-03-17T04:27:50;4.10;99.90
19781;DHT22;10050;55.492;13.506;2023-03-17T04:30:16;4.10;99.90
19781;DHT22;10050;55.492;13.506;2023-03-17T04:32:42;4.00;99.90
19781;DHT22;10050;55.492;13.506;2023-03-17T04:35:15;4.00;99.90
19781;DHT22;10050;55.492;13.506;2023-03-17T04:37:42;4.00;99.90
19781;DHT22;10050;55.492;13.506;2023-03-17T04:40:09;4.00;99.90
19781;DHT22;10050;55.492;13.506;2023-03-17T04:42:36;4.00;99.90
19781;DHT22;10050;55.492;13.506;2023-03-17T04:45:03;4.00;99.90
19781;DHT22;10050;55.492;13.506;2023-03-17T04:47:29;4.10;99.90
19781;DHT22;10050;55.492;13.506;2023-03-17T04:49:54;4.10;99.90
19781;DHT22;10050;55.492;13.506;2023-03-17T04:52:20;4.10;99.90
19781;DHT22;10050;55.492;13.506;2023-03-17T04:54:46;4.10;99.90
19781;DHT22;10050;55.492;13.506;2023-03-17T04:57:11;4.10;99.90
19781;DHT22;10050;55.492;13.506;2023-03-17T04:59:37;4.10;99.90
19781;DHT22;10050;55.492;13.506;2023-03-17T05:02:03;4.10;99.90
19781;DHT22;10050;55.492;13.506;2023-03-17T05:04:28;4.10;99.90
19781;DHT22;10050;55.492;13.506;2023-03-17T05:06:54;4.10;99.90
19781;DHT22;10050;55.492;13.506;2023-03-17T05:09:23;4.10;99.90
19781;DHT22;10050;55.492;13.506;2023-03-17T05:11:49;4.20;99.90
19781;DHT22;10050;55.492;13.506;2023-03-17T05:14:15;4.20;99.90
19781;DHT22;10050;55.492;13.506;2023-03-17T05:16:41;4.20;99.90
19781;DHT22;10050;55.492;13.506;2023-03-17T05:19:12;4.20;99.90
19781;DHT22;10050;55.492;13.506;2023-03-17T05:21:37;4.20;99.90
19781;DHT22;10050;55.492;13.506;2023-03-17T05:24:03;4.20;99.90
19781;DHT22;10050;55.492;13.506;2023-03-17T05:26:29;4.30;99.90
19781;DHT22;10050;55.492;13.506;2023-03-17T05:28:56;4.20;99.90
19781;DHT22;10050;55.492;13.506;2023-03-17T05:31:22;4.30;99.90
19781;DHT22;10050;55.492;13.506;2023-03-17T05:33:48;4.30;99.90
19781;DHT22;10050;55.492;13.506;2023-03-17T05:36:14;4.30;99.90
19781;DHT22;10050;55.492;13.506;2023-03-17T05:38:40;4.30;99.90
19781;DHT22;10050;55.492;13.506;2023-03-17T05:41:06;4.30;99.90
19781;DHT22;10050;55.492;13.506;2023-03-17T05:43:32;4.40;99.90
19781;DHT22;10050;55.492;13.506;2023-03-17T05:45:58;4.40;99.90
19781;DHT22;10050;55.492;13.506;2023-03-17T05:48:24;4.40;99.90
19781;DHT22;10050;55.492;13.506;2023-03-17T05:50:50;4.40;99.90
19781;DHT22;10050;55.492;13.506;2023-03-17T05:53:16;4.40;99.90
19781;DHT22;10050;55.492;13.506;2023-03-17T05:55:43;4.40;99.90
19781;DHT22;10050;55.492;13.506;2023-03-17T05:58:09;4.40;99.90
19781;DHT22;10050;55.492;13.506;2023-03-17T06:00:35;4.40;99.90
19781;DHT22;10050;55.492;13.506;2023-03-17T06:03:02;4.50;99.90
19781;DHT22;10050;55.492;13.506;2023-03-17T06:05:28;4.50;99.90
19781;DHT22;10050;55.492;13.506;2023-03-17T06:07:54;4.50;99.90
19781;DHT22;10050;55.492;13.506;2023-03-17T06:10:20;4.60;99.90
19781;DHT22;10050;55.492;13.506;2023-03-17T06:12:46;4.60;99.90
19781;DHT22;10050;55.492;13.506;2023-03-17T06:15:12;4.60;99.90
19781;DHT22;10050;55.492;13.506;2023-03-17T06:17:40;4.60;99.90
19781;DHT22;10050;55.492;13.506;2023-03-17T06:20:07;4.60;99.90
19781;DHT22;10050;55.492;13.506;2023-03-17T06:22:33;4.60;99.90
19781;DHT22;10050;55.492;13.506;2023-03-17T06:24:58;4.60;99.90
19781;DHT22;10050;55.492;13.506;2023-03-17T06:27:25;4.60;99.90
19781;DHT22;10050;55.492;13.506;2023-03-17T06:29:51;4.60;99.90
19781;DHT22;10050;55.492;13.506;2023-03-17T06:32:18;4.60;99.90
19781;DHT22;10050;55.492;13.506;2023-03-17T06:34:44;4.60;99.90
19781;DHT22;10050;55.492;13.506;2023-03-17T06:37:09;4.70;99.90
19781;DHT22;10050;55.492;13.506;2023-03-17T06:39:38;4.70;99.90
19781;DHT22;10050;55.492;13.506;2023-03-17T06:42:06;4.80;99.90
19781;DHT22;10050;55.492;13.506;2023-03-17T06:44:32;4.80;99.90
19781;DHT22;10050;55.492;13.506;2023-03-17T06:46:58;4.80;99.90
19781;DHT22;10050;55.492;13.506;2023-03-17T06:49:24;4.80;99.90
19781;DHT22;10050;55.492;13.506;2023-03-17T06:51:50;4.80;99.90
19781;DHT22;10050;55.492;13.506;2023-03-17T06:54:16;4.80;99.90
19781;DHT22;10050;55.492;13.506;2023-03-17T06:56:45;4.80;99.90
19781;DHT22;10050;55.492;13.506;2023-03-17T06:59:15;4.80;99.90
19781;DHT22;10050;55.492;13.506;2023-03-17T07:01:40;4.80;99.90
19781;DHT22;10050;55.492;13.506;2023-03-17T07:04:06;4.80;99.90
19781;DHT22;10050;55.492;13.506;2023-03-17T07:06:32;4.80;99.90
19781;DHT22;10050;55.492;13.506;2023-03-17T07:08:58;4.80;99.90
19781;DHT22;10050;55.492;13.506;2023-03-17T07:11:23;4.80;99.90
19781;DHT22;10050;55.492;13.506;2023-03-17T07:13:54;4.80;99.90
19781;DHT22;10050;55.492;13.506;2023-03-17T07:16:20;4.80;99.90
19781;DHT22;10050;55.492;13.506;2023-03-17T07:18:49;4.80;99.90
19781;DHT22;10050;55.492;13.506;2023-03-17T07:21:15;4.80;99.90
19781;DHT22;10050;55.492;13.506;2023-03-17T07:23:44;4.80;99.90
19781;DHT22;10050;55.492;13.506;2023-03-17T07:26:09;4.80;99.90
19781;DHT22;10050;55.492;13.506;2023-03-17T07:28:35;4.80;99.90
19781;DHT22;10050;55.492;13.506;2023-03-17T07:31:01;4.80;99.90
19781;DHT22;10050;55.492;13.506;2023-03-17T07:33:27;4.80;99.90
19781;DHT22;10050;55.492;13.506;2023-03-17T07:35:53;4.80;99.90
19781;DHT22;10050;55.492;13.506;2023-03-17T07:38:19;4.80;99.90
19781;DHT22;10050;55.492;13.506;2023-03-17T07:40:47;4.80;99.90
19781;DHT22;10050;55.492;13.506;2023-03-17T07:43:14;4.90;99.90
19781;DHT22;10050;55.492;13.506;2023-03-17T07:45:42;4.90;99.90
19781;DHT22;10050;55.492;13.506;2023-03-17T07:48:07;4.90;99.90
19781;DHT22;10050;55.492;13.506;2023-03-17T07:50:34;4.80;99.90
19781;DHT22;10050;55.492;13.506;2023-03-17T07:53:01;4.90;99.90
19781;DHT22;10050;55.492;13.506;2023-03-17T07:55:28;4.80;99.90
19781;DHT22;10050;55.492;13.506;2023-03-17T07:57:54;4.80;99.90
19781;DHT22;10050;55.492;13.506;2023-03-17T08:00:20;4.80;99.90
19781;DHT22;10050;55.492;13.506;2023-03-17T08:02:48;4.80;99.90
19781;DHT22;10050;55.492;13.506;2023-03-17T08:05:15;4.80;99.90
19781;DHT22;10050;55.492;13.506;2023-03-17T08:07:41;4.80;99.90
19781;DHT22;10050;55.492;13.506;2023-03-17T08:10:07;4.80;99.90
19781;DHT22;10050;55.492;13.506;2023-03-17T08:12:34;4.80;99.90
19781;DHT22;10050;55.492;13.506;2023-03-17T08:15:00;4.80;99.90
19781;DHT22;10050;55.492;13.506;2023-03-17T08:17:26;4.80;99.90
19781;DHT22;10050;55.492;13.506;2023-03-17T08:19:53;4.80;99.90
19781;DHT22;10050;55.492;13.506;2023-03-17T08:22:21;4.80;99.90
19781;DHT22;10050;55.492;13.506;2023-03-17T08:24:48;4.80;99.90
19781;DHT22;10050;55.492;13.506;2023-03-17T08:27:23;4.90;99.90
19781;DHT22;10050;55.492;13.506;2023-03-17T08:29:52;4.90;99.90
19781;DHT22;10050;55.492;13.506;2023-03-17T08:32:30;4.90;99.90
19781;DHT22;10050;55.492;13.506;2023-03-17T08:34:59;4.90;99.90
19781;DHT22;10050;55.492;13.506;2023-03-17T08:37:39;4.90;99.90
19781;DHT22;10050;55.492;13.506;2023-03-17T08:40:14;4.90;99.90
19781;DHT22;10050;55.492;13.506;2023-03-17T08:42:46;5.00;99.90
19781;DHT22;10050;55.492;13.506;2023-03-17T08:45:19;5.10;99.90
19781;DHT22;10050;55.492;13.506;2023-03-17T08:47:45;5.10;99.90
19781;DHT22;10050;55.492;13.506;2023-03-17T08:50:18;5.20;99.90
19781;DHT22;10050;55.492;13.506;2023-03-17T08:52:44;5.20;99.90
19781;DHT22;10050;55.492;13.506;2023-03-17T08:55:14;5.30;99.90
19781;DHT22;10050;55.492;13.506;2023-03-17T08:57:46;5.40;99.90
19781;DHT22;10050;55.492;13.506;2023-03-17T09:00:16;5.40;99.90
19781;DHT22;10050;55.492;13.506;2023-03-17T09:02:46;5.30;99.90
19781;DHT22;10050;55.492;13.506;2023-03-17T09:05:27;5.40;99.90
19781;DHT22;10050;55.492;13.506;2023-03-17T09:07:57;5.50;99.90
19781;DHT22;10050;55.492;13.506;2023-03-17T09:10:28;5.70;99.90
19781;DHT22;10050;55.492;13.506;2023-03-17T09:12:58;5.80;99.90
19781;DHT22;10050;55.492;13.506;2023-03-17T09:15:32;6.00;99.90
19781;DHT22;10050;55.492;13.506;2023-03-17T09:18:06;6.20;99.90
19781;DHT22;10050;55.492;13.506;2023-03-17T09:20:33;6.20;99.90
19781;DHT22;10050;55.492;13.506;2023-03-17T09:23:15;6.30;99.90
19781;DHT22;10050;55.492;13.506;2023-03-17T09:25:43;6.30;99.90
19781;DHT22;10050;55.492;13.506;2023-03-17T09:28:15;6.50;99.90
19781;DHT22;10050;55.492;13.506;2023-03-17T09:30:45;6.60;99.90
19781;DHT22;10050;55.492;13.506;2023-03-17T09:33:17;6.50;99.90
19781;DHT22;10050;55.492;13.506;2023-03-17T09:35:44;6.20;99.90
19781;DHT22;10050;55.492;13.506;2023-03-17T09:38:10;6.10;99.90
19781;DHT22;10050;55.492;13.506;2023-03-17T09:43:38;6.10;99.90
19781;DHT22;10050;55.492;13.506;2023-03-17T09:46:36;6.20;99.90
19781;DHT22;10050;55.492;13.506;2023-03-17T09:49:49;6.10;99.90
19781;DHT22;10050;55.492;13.506;2023-03-17T09:52:35;6.10;99.90
19781;DHT22;10050;55.492;13.506;2023-03-17T09:55:05;6.20;99.90
19781;DHT22;10050;55.492;13.506;2023-03-17T09:57:37;6.40;99.90
19781;DHT22;10050;55.492;13.506;2023-03-17T10:00:16;6.30;99.90
19781;DHT22;10050;55.492;13.506;2023-03-17T10:02:43;6.50;99.90
19781;DHT22;10050;55.492;13.506;2023-03-17T10:05:21;6.70;99.90
19781;DHT22;10050;55.492;13.506;2023-03-17T10:10:45;6.90;99.90
19781;DHT22;10050;55.492;13.506;2023-03-17T10:16:21;7.00;99.90
19781;DHT22;10050;55.492;13.506;2023-03-17T10:19:09;7.30;99.90
19781;DHT22;10050;55.492;13.506;2023-03-17T10:21:47;7.30;99.90
19781;DHT22;10050;55.492;13.506;2023-03-17T10:24:14;7.20;99.90
19781;DHT22;10050;55.492;13.506;2023-03-17T10:26:46;7.20;99.90
19781;DHT22;10050;55.492;13.506;2023-03-17T10:29:16;7.70;99.90
19781;DHT22;10050;55.492;13.506;2023-03-17T10:31:42;7.80;99.90
19781;DHT22;10050;55.492;13.506;2023-03-17T10:34:18;7.90;99.90
19781;DHT22;10050;55.492;13.506;2023-03-17T10:36:48;7.90;99.90
19781;DHT22;10050;55.492;13.506;2023-03-17T10:39:23;7.90;99.90
19781;DHT22;10050;55.492;13.506;2023-03-17T10:41:54;8.10;99.90
19781;DHT22;10050;55.492;13.506;2023-03-17T10:44:52;8.10;99.90
19781;DHT22;10050;55.492;13.506;2023-03-17T10:47:31;8.40;99.90
19781;DHT22;10050;55.492;13.506;2023-03-17T10:50:17;8.30;99.90
19781;DHT22;10050;55.492;13.506;2023-03-17T10:52:46;8.40;99.90
19781;DHT22;10050;55.492;13.506;2023-03-17T10:55:16;8.10;99.90
19781;DHT22;10050;55.492;13.506;2023-03-17T11:01:16;7.70;99.90
19781;DHT22;10050;55.492;13.506;2023-03-17T11:03:47;7.80;99.90
19781;DHT22;10050;55.492;13.506;2023-03-17T11:06:18;7.70;99.90
19781;DHT22;10050;55.492;13.506;2023-03-17T11:08:51;7.60;99.90
19781;DHT22;10050;55.492;13.506;2023-03-17T11:11:28;7.60;99.90
19781;DHT22;10050;55.492;13.506;2023-03-17T11:14:10;7.50;99.90
19781;DHT22;10050;55.492;13.506;2023-03-17T11:16:51;7.80;99.90
19781;DHT22;10050;55.492;13.506;2023-03-17T11:19:18;7.80;99.90
19781;DHT22;10050;55.492;13.506;2023-03-17T11:22:16;7.70;99.90
19781;DHT22;10050;55.492;13.506;2023-03-17T11:27:31;7.30;99.90
19781;DHT22;10050;55.492;13.506;2023-03-17T11:30:13;7.60;99.90
19781;DHT22;10050;55.492;13.506;2023-03-17T11:33:19;7.50;99.90
19781;DHT22;10050;55.492;13.506;2023-03-17T11:36:13;7.40;99.90
19781;DHT22;10050;55.492;13.506;2023-03-17T11:41:32;7.30;99.90
19781;DHT22;10050;55.492;13.506;2023-03-17T11:44:18;7.10;99.90
19781;DHT22;10050;55.492;13.506;2023-03-17T11:49:52;6.90;99.90
19781;DHT22;10050;55.492;13.506;2023-03-17T11:52:29;7.00;99.90
19781;DHT22;10050;55.492;13.506;2023-03-17T11:57:34;7.10;99.90
19781;DHT22;10050;55.492;13.506;2023-03-17T12:00:17;7.30;99.90
19781;DHT22;10050;55.492;13.506;2023-03-17T12:03:36;7.50;99.90
19781;DHT22;10050;55.492;13.506;2023-03-17T12:05:34;7.60;99.90
19781;DHT22;10050;55.492;13.506;2023-03-17T12:08:11;7.70;99.90
19781;DHT22;10050;55.492;13.506;2023-03-17T12:10:46;7.70;99.90
19781;DHT22;10050;55.492;13.506;2023-03-17T12:13:28;7.80;99.90
19781;DHT22;10050;55.492;13.506;2023-03-17T12:15:56;7.80;99.90
19781;DHT22;10050;55.492;13.506;2023-03-17T12:18:49;7.90;99.90
19781;DHT22;10050;55.492;13.506;2023-03-17T12:21:30;7.90;99.90
19781;DHT22;10050;55.492;13.506;2023-03-17T12:24:21;7.70;99.90
19781;DHT22;10050;55.492;13.506;2023-03-17T12:26:55;7.70;99.90
19781;DHT22;10050;55.492;13.506;2023-03-17T12:32:28;7.50;99.90
19781;DHT22;10050;55.492;13.506;2023-03-17T12:35:10;7.30;99.90
19781;DHT22;10050;55.492;13.506;2023-03-17T12:37:43;7.20;99.90
19781;DHT22;10050;55.492;13.506;2023-03-17T12:40:13;7.20;99.90
19781;DHT22;10050;55.492;13.506;2023-03-17T12:42:51;7.30;99.90
19781;DHT22;10050;55.492;13.506;2023-03-17T12:51:01;7.60;99.90
19781;DHT22;10050;55.492;13.506;2023-03-17T12:53:41;7.60;99.90
19781;DHT22;10050;55.492;13.506;2023-03-17T12:58:55;7.50;99.90
19781;DHT22;10050;55.492;13.506;2023-03-17T13:01:33;7.60;99.90
19781;DHT22;10050;55.492;13.506;2023-03-17T13:04:19;7.70;99.90
19781;DHT22;10050;55.492;13.506;2023-03-17T13:12:04;7.50;99.90
19781;DHT22;10050;55.492;13.506;2023-03-17T13:25:37;7.60;99.90
19781;DHT22;10050;55.492;13.506;2023-03-17T13:28:15;7.80;99.90
19781;DHT22;10050;55.492;13.506;2023-03-17T13:33:55;7.70;99.90
19781;DHT22;10050;55.492;13.506;2023-03-17T13:42:19;7.80;99.90
19781;DHT22;10050;55.492;13.506;2023-03-17T13:47:37;7.80;99.90
19781;DHT22;10050;55.492;13.506;2023-03-17T13:53:06;7.80;99.90
19781;DHT22;10050;55.492;13.506;2023-03-17T13:58:22;7.80;99.90
19781;DHT22;10050;55.492;13.506;2023-03-17T14:01:00;7.90;99.90
19781;DHT22;10050;55.492;13.506;2023-03-17T14:03:50;7.90;99.90
19781;DHT22;10050;55.492;13.506;2023-03-17T14:06:22;8.00;99.90
19781;DHT22;10050;55.492;13.506;2023-03-17T14:08:59;7.80;99.90
19781;DHT22;10050;55.492;13.506;2023-03-17T14:11:35;7.70;99.90
19781;DHT22;10050;55.492;13.506;2023-03-17T14:27:22;7.20;99.90
19781;DHT22;10050;55.492;13.506;2023-03-17T14:29:52;7.10;99.90
19781;DHT22;10050;55.492;13.506;2023-03-17T14:32:25;7.00;99.90
19781;DHT22;10050;55.492;13.506;2023-03-17T14:34:57;7.00;99.90
19781;DHT22;10050;55.492;13.506;2023-03-17T14:37:24;7.00;99.90
19781;DHT22;10050;55.492;13.506;2023-03-17T14:39:55;7.00;99.90
19781;DHT22;10050;55.492;13.506;2023-03-17T15:20:45;7.10;99.90
19781;DHT22;10050;55.492;13.506;2023-03-17T15:23:19;7.10;99.90
19781;DHT22;10050;55.492;13.506;2023-03-17T15:25:56;7.10;99.90
19781;DHT22;10050;55.492;13.506;2023-03-17T15:28:25;7.20;99.90
19781;DHT22;10050;55.492;13.506;2023-03-17T15:30:52;7.20;99.90
19781;DHT22;10050;55.492;13.506;2023-03-17T15:35:49;7.20;99.90
19781;DHT22;10050;55.492;13.506;2023-03-17T15:38:15;7.20;99.90
19781;DHT22;10050;55.492;13.506;2023-03-17T15:40:40;7.20;99.90
19781;DHT22;10050;55.492;13.506;2023-03-17T15:43:07;7.30;99.90
19781;DHT22;10050;55.492;13.506;2023-03-17T15:45:33;7.30;99.90
19781;DHT22;10050;55.492;13.506;2023-03-17T15:47:59;7.30;99.90
19781;DHT22;10050;55.492;13.506;2023-03-17T15:50:30;7.40;99.90
19781;DHT22;10050;55.492;13.506;2023-03-17T15:52:59;7.30;99.90
19781;DHT22;10050;55.492;13.506;2023-03-17T15:55:27;7.30;99.90
19781;DHT22;10050;55.492;13.506;2023-03-17T15:57:56;7.30;99.90
19781;DHT22;10050;55.492;13.506;2023-03-17T16:00:24;7.30;99.90
19781;DHT22;10050;55.492;13.506;2023-03-17T16:03:03;7.20;99.90
19781;DHT22;10050;55.492;13.506;2023-03-17T16:05:32;7.20;99.90
19781;DHT22;10050;55.492;13.506;2023-03-17T16:07:58;7.20;99.90
19781;DHT22;10050;55.492;13.506;2023-03-17T16:10:29;7.10;99.90
19781;DHT22;10050;55.492;13.506;2023-03-17T16:12:56;7.10;99.90
19781;DHT22;10050;55.492;13.506;2023-03-17T16:15:25;7.10;99.90
19781;DHT22;10050;55.492;13.506;2023-03-17T16:17:55;7.20;99.90
19781;DHT22;10050;55.492;13.506;2023-03-17T16:20:38;7.10;99.90
19781;DHT22;10050;55.492;13.506;2023-03-17T16:23:13;7.10;99.90
19781;DHT22;10050;55.492;13.506;2023-03-17T16:25:39;7.10;99.90
19781;DHT22;10050;55.492;13.506;2023-03-17T16:28:32;7.10;99.90
19781;DHT22;10050;55.492;13.506;2023-03-17T16:30:59;7.10;99.90
19781;DHT22;10050;55.492;13.506;2023-03-17T16:33:47;7.10;99.90
19781;DHT22;10050;55.492;13.506;2023-03-17T16:36:16;7.10;99.90
19781;DHT22;10050;55.492;13.506;2023-03-17T16:38:42;7.00;99.90
19781;DHT22;10050;55.492;13.506;2023-03-17T16:41:18;7.00;99.90
19781;DHT22;10050;55.492;13.506;2023-03-17T16:43:45;7.00;99.90
19781;DHT22;10050;55.492;13.506;2023-03-17T16:46:14;7.00;99.90
19781;DHT22;10050;55.492;13.506;2023-03-17T16:48:40;7.00;99.90
19781;DHT22;10050;55.492;13.506;2023-03-17T16:51:06;7.00;99.90
19781;DHT22;10050;55.492;13.506;2023-03-17T16:53:38;7.00;99.90
19781;DHT22;10050;55.492;13.506;2023-03-17T16:56:27;6.90;99.90
19781;DHT22;10050;55.492;13.506;2023-03-17T16:58:56;6.90;99.90
19781;DHT22;10050;55.492;13.506;2023-03-17T17:04:17;6.80;99.90
19781;DHT22;10050;55.492;13.506;2023-03-17T17:06:46;6.80;99.90
19781;DHT22;10050;55.492;13.506;2023-03-17T17:09:17;6.80;99.90
19781;DHT22;10050;55.492;13.506;2023-03-17T17:11:45;6.70;99.90
19781;DHT22;10050;55.492;13.506;2023-03-17T17:14:14;6.70;99.90
19781;DHT22;10050;55.492;13.506;2023-03-17T17:16:40;6.70;99.90
19781;DHT22;10050;55.492;13.506;2023-03-17T17:19:15;6.70;99.90
19781;DHT22;10050;55.492;13.506;2023-03-17T17:21:41;6.70;99.90
19781;DHT22;10050;55.492;13.506;2023-03-17T17:24:13;6.60;99.90
19781;DHT22;10050;55.492;13.506;2023-03-17T17:26:39;6.60;99.90
19781;DHT22;10050;55.492;13.506;2023-03-17T17:29:05;6.60;99.90
19781;DHT22;10050;55.492;13.506;2023-03-17T17:31:31;6.60;99.90
19781;DHT22;10050;55.492;13.506;2023-03-17T17:33:57;6.50;99.90
19781;DHT22;10050;55.492;13.506;2023-03-17T17:36:24;6.50;99.90
19781;DHT22;10050;55.492;13.506;2023-03-17T17:38:50;6.50;99.90
19781;DHT22;10050;55.492;13.506;2023-03-17T17:41:17;6.50;99.90
19781;DHT22;10050;55.492;13.506;2023-03-17T17:43:46;6.50;99.90
19781;DHT22;10050;55.492;13.506;2023-03-17T17:46:21;6.50;99.90
19781;DHT22;10050;55.492;13.506;2023-03-17T17:48:50;6.50;99.90
19781;DHT22;10050;55.492;13.506;2023-03-17T17:51:21;6.40;99.90
19781;DHT22;10050;55.492;13.506;2023-03-17T17:53:47;6.40;99.90
19781;DHT22;10050;55.492;13.506;2023-03-17T17:56:14;6.40;99.90
19781;DHT22;10050;55.492;13.506;2023-03-17T17:58:40;6.40;99.90
19781;DHT22;10050;55.492;13.506;2023-03-17T18:01:06;6.40;99.90
19781;DHT22;10050;55.492;13.506;2023-03-17T18:03:32;6.40;99.90